createdAt,value
2018-03-07T00:00:34.072Z,1.60
2018-03-07T00:03:03.358Z,1.70
2018-03-07T00:05:32.421Z,1.60
2018-03-07T00:08:01.636Z,1.60
2018-03-07T00:10:30.761Z,1.70
2018-03-07T00:12:59.832Z,1.70
2018-03-07T00:15:28.912Z,1.70
2018-03-07T00:17:58.004Z,1.60
2018-03-07T00:20:27.077Z,1.60
2018-03-07T00:22:56.212Z,1.60
2018-03-07T00:25:25.314Z,1.70
2018-03-07T00:27:54.514Z,1.60
2018-03-07T00:30:23.642Z,1.70
2018-03-07T00:32:52.738Z,1.70
2018-03-07T00:35:21.845Z,1.80
2018-03-07T00:37:50.909Z,1.80
2018-03-07T00:40:20.069Z,1.80
2018-03-07T00:42:49.207Z,1.80
2018-03-07T00:45:18.278Z,1.80
2018-03-07T00:47:47.420Z,1.80
2018-03-07T00:50:16.490Z,1.70
2018-03-07T00:52:45.559Z,1.60
2018-03-07T00:55:14.633Z,1.60
2018-03-07T00:57:43.754Z,1.80
2018-03-07T01:00:12.853Z,1.80
2018-03-07T01:02:41.950Z,1.90
2018-03-07T01:05:11.041Z,1.80
2018-03-07T01:07:40.869Z,1.80
2018-03-07T01:10:10.386Z,1.80
2018-03-07T01:12:39.456Z,1.80
2018-03-07T01:15:08.553Z,1.70
2018-03-07T01:17:37.627Z,1.80
2018-03-07T01:20:06.737Z,1.80
2018-03-07T01:22:35.858Z,1.80
2018-03-07T01:25:04.939Z,1.70
2018-03-07T01:27:34.771Z,1.50
2018-03-07T01:30:04.854Z,1.50
2018-03-07T01:32:34.172Z,1.50
2018-03-07T01:35:03.235Z,1.40
2018-03-07T01:37:33.293Z,1.40
2018-03-07T01:40:02.390Z,1.40
2018-03-07T01:42:31.467Z,1.50
2018-03-07T01:45:00.737Z,1.50
2018-03-07T01:47:29.806Z,1.50
2018-03-07T01:49:58.962Z,1.50
2018-03-07T01:52:28.074Z,1.50
2018-03-07T01:54:57.151Z,1.50
2018-03-07T01:57:26.265Z,1.40
2018-03-07T01:59:55.329Z,1.40
2018-03-07T02:02:24.402Z,1.40
2018-03-07T02:04:53.469Z,1.50
2018-03-07T02:07:23.387Z,1.40
2018-03-07T02:09:53.302Z,1.40
2018-03-07T02:12:22.382Z,1.30
2018-03-07T02:14:51.543Z,1.30
2018-03-07T02:17:20.806Z,1.30
2018-03-07T02:19:49.938Z,1.30
2018-03-07T02:22:19.002Z,1.40
2018-03-07T02:24:48.078Z,1.40
2018-03-07T02:27:17.180Z,1.50
2018-03-07T02:29:46.382Z,1.40
2018-03-07T02:32:15.454Z,1.30
2018-03-07T02:34:44.520Z,1.40
2018-03-07T02:37:13.638Z,1.30
2018-03-07T02:39:42.709Z,1.40
2018-03-07T02:42:11.833Z,1.30
2018-03-07T02:44:40.906Z,1.30
2018-03-07T02:47:09.975Z,1.30
2018-03-07T02:49:39.127Z,1.50
2018-03-07T02:52:08.204Z,1.40
2018-03-07T02:54:37.315Z,1.30
2018-03-07T02:57:07.153Z,1.30
2018-03-07T02:59:36.991Z,1.30
2018-03-07T03:02:06.063Z,1.30
2018-03-07T03:04:35.230Z,1.40
2018-03-07T03:07:04.301Z,1.30
2018-03-07T03:09:34.133Z,1.50
2018-03-07T03:12:04.064Z,1.40
2018-03-07T03:14:33.898Z,1.30
2018-03-07T03:17:03.018Z,1.30
2018-03-07T03:19:32.141Z,1.30
2018-03-07T03:22:01.214Z,1.40
2018-03-07T03:24:31.067Z,1.30
2018-03-07T03:27:00.329Z,1.20
2018-03-07T03:29:29.449Z,1.30
2018-03-07T03:31:58.513Z,1.40
2018-03-07T03:34:28.013Z,1.30
2018-03-07T03:36:57.890Z,1.40
2018-03-07T03:39:26.956Z,1.40
2018-03-07T03:41:56.019Z,1.40
2018-03-07T03:44:25.082Z,1.30
2018-03-07T03:46:54.166Z,1.40
2018-03-07T03:49:24.014Z,1.30
2018-03-07T03:51:53.093Z,1.30
2018-03-07T03:54:22.160Z,1.30
2018-03-07T03:56:51.362Z,1.30
2018-03-07T03:59:20.430Z,1.30
2018-03-07T04:01:50.326Z,1.40
2018-03-07T04:04:19.393Z,1.40
2018-03-07T04:06:48.461Z,1.40
2018-03-07T04:09:17.638Z,1.40
2018-03-07T04:11:46.788Z,1.30
2018-03-07T04:14:16.071Z,1.30
2018-03-07T04:16:45.145Z,1.20
2018-03-07T04:19:14.980Z,1.40
2018-03-07T04:21:44.069Z,1.40
2018-03-07T04:24:13.177Z,1.40
2018-03-07T04:26:43.177Z,1.40
2018-03-07T04:29:12.342Z,1.40
2018-03-07T04:31:41.409Z,1.40
2018-03-07T04:34:10.474Z,1.40
2018-03-07T04:36:39.573Z,1.40
2018-03-07T04:39:08.672Z,1.30
2018-03-07T04:41:38.538Z,1.30
2018-03-07T04:44:07.631Z,1.30
2018-03-07T04:46:36.700Z,1.40
2018-03-07T04:49:07.337Z,1.50
2018-03-07T04:51:36.414Z,1.50
2018-03-07T04:54:05.529Z,1.50
2018-03-07T04:56:34.596Z,1.70
2018-03-07T04:59:04.434Z,1.70
2018-03-07T05:01:33.569Z,1.60
2018-03-07T05:04:02.643Z,1.60
2018-03-07T05:06:32.473Z,1.80
2018-03-07T05:09:02.306Z,1.70
2018-03-07T05:11:31.418Z,1.70
2018-03-07T05:14:00.485Z,1.90
2018-03-07T05:16:29.566Z,2.00
2018-03-07T05:18:58.630Z,2.10
2018-03-07T05:21:28.306Z,2.20
2018-03-07T05:23:57.380Z,2.10
2018-03-07T05:26:26.450Z,2.20
2018-03-07T05:28:55.519Z,2.30
2018-03-07T05:31:24.618Z,2.30
2018-03-07T05:33:54.187Z,2.40
2018-03-07T05:36:23.278Z,2.40
2018-03-07T05:38:52.354Z,2.50
2018-03-07T05:41:21.429Z,2.40
2018-03-07T05:43:50.549Z,2.40
2018-03-07T05:46:20.453Z,2.50
2018-03-07T05:48:49.521Z,2.50
2018-03-07T05:51:18.589Z,2.50
2018-03-07T05:53:47.670Z,2.60
2018-03-07T05:56:16.774Z,2.60
2018-03-07T05:58:45.841Z,2.60
2018-03-07T06:01:15.674Z,2.70
2018-03-07T06:03:44.745Z,2.70
2018-03-07T06:06:15.421Z,2.70
2018-03-07T06:08:44.490Z,2.70
2018-03-07T06:11:13.567Z,2.70
2018-03-07T06:13:42.637Z,2.80
2018-03-07T06:16:11.829Z,2.80
2018-03-07T06:18:40.901Z,2.80
2018-03-07T06:21:09.980Z,2.80
2018-03-07T06:23:40.070Z,2.80
2018-03-07T06:26:09.142Z,2.80
2018-03-07T06:28:38.846Z,2.80
2018-03-07T06:31:08.689Z,2.70
2018-03-07T06:33:37.926Z,2.70
2018-03-07T06:36:07.042Z,2.80
2018-03-07T06:38:36.109Z,2.80
2018-03-07T06:41:05.959Z,2.80
2018-03-07T06:43:35.053Z,2.80
2018-03-07T06:46:04.182Z,2.90
2018-03-07T06:48:33.247Z,2.80
2018-03-07T06:51:02.322Z,2.90
2018-03-07T06:53:31.519Z,2.90
2018-03-07T06:56:00.586Z,3.00
2018-03-07T06:58:29.656Z,3.00
2018-03-07T07:00:58.726Z,2.90
2018-03-07T07:03:27.797Z,2.90
2018-03-07T07:05:56.856Z,3.00
2018-03-07T07:08:26.007Z,3.00
2018-03-07T07:10:55.850Z,2.90
2018-03-07T07:13:24.917Z,2.90
2018-03-07T07:15:54.125Z,2.90
2018-03-07T07:18:23.198Z,2.80
2018-03-07T07:20:53.035Z,2.60
2018-03-07T07:23:22.869Z,2.70
2018-03-07T07:25:51.961Z,2.60
2018-03-07T07:28:21.836Z,2.70
2018-03-07T07:30:50.937Z,2.70
2018-03-07T07:33:20.012Z,2.60
2018-03-07T07:35:49.846Z,2.70
2018-03-07T07:38:19.681Z,2.90
2018-03-07T07:40:49.518Z,3.00
2018-03-07T07:43:18.679Z,3.00
2018-03-07T07:45:47.707Z,3.10
2018-03-07T07:48:16.769Z,3.00
2018-03-07T07:50:45.867Z,3.10
2018-03-07T07:53:14.950Z,3.20
2018-03-07T07:55:44.830Z,3.00
2018-03-07T07:58:13.898Z,3.00
2018-03-07T08:00:43.731Z,3.00
2018-03-07T08:03:12.818Z,3.00
2018-03-07T08:05:41.881Z,3.00
2018-03-07T08:08:10.947Z,3.10
2018-03-07T08:10:40.782Z,3.30
2018-03-07T08:13:10.614Z,3.40
2018-03-07T08:15:39.682Z,3.40
2018-03-07T08:18:08.773Z,3.30
2018-03-07T08:20:37.881Z,3.00
2018-03-07T08:23:06.941Z,3.10
2018-03-07T08:25:36.779Z,3.20
2018-03-07T08:28:05.842Z,3.20
2018-03-07T08:30:34.914Z,3.30
2018-03-07T08:33:03.990Z,3.40
2018-03-07T08:35:33.858Z,3.60
2018-03-07T08:38:02.956Z,3.60
2018-03-07T08:40:32.015Z,3.50
2018-03-07T08:43:01.084Z,3.70
2018-03-07T08:45:30.147Z,3.90
2018-03-07T08:47:59.216Z,3.90
2018-03-07T08:50:28.278Z,3.90
2018-03-07T08:52:58.111Z,3.90
2018-03-07T08:55:27.956Z,3.70
2018-03-07T08:57:57.021Z,3.70
2018-03-07T09:00:26.084Z,3.80
2018-03-07T09:02:55.186Z,3.80
2018-03-07T09:05:24.249Z,4.00
2018-03-07T09:07:53.314Z,3.80
2018-03-07T09:10:22.377Z,3.90
2018-03-07T09:12:52.237Z,3.90
2018-03-07T09:15:21.386Z,3.90
2018-03-07T09:17:50.449Z,3.70
2018-03-07T09:20:20.281Z,3.80
2018-03-07T09:22:50.142Z,3.90
2018-03-07T09:25:19.220Z,3.80
2018-03-07T09:27:49.050Z,4.00
2018-03-07T09:30:18.158Z,4.00
2018-03-07T09:32:47.985Z,3.80
2018-03-07T09:35:17.089Z,3.70
2018-03-07T09:37:46.913Z,3.70
2018-03-07T09:40:16.749Z,3.50
2018-03-07T09:42:46.717Z,3.70
2018-03-07T09:45:15.810Z,3.60
2018-03-07T09:47:44.938Z,3.80
2018-03-07T09:50:13.997Z,3.80
2018-03-07T09:52:43.898Z,3.80
2018-03-07T09:55:12.966Z,3.80
2018-03-07T09:57:42.027Z,3.70
2018-03-07T10:00:11.118Z,3.80
2018-03-07T10:02:40.181Z,3.70
2018-03-07T10:05:09.247Z,3.80
2018-03-07T10:07:38.417Z,3.80
2018-03-07T10:10:07.478Z,3.60
2018-03-07T10:12:36.582Z,3.60
2018-03-07T10:15:05.646Z,3.60
2018-03-07T10:17:34.730Z,3.70
2018-03-07T10:20:04.587Z,3.80
2018-03-07T10:22:33.652Z,3.80
2018-03-07T10:25:02.716Z,3.70
2018-03-07T10:27:31.809Z,3.50
2018-03-07T10:30:00.869Z,3.70
2018-03-07T10:32:29.935Z,3.90
2018-03-07T10:34:59.006Z,3.90
2018-03-07T10:37:28.838Z,3.90
2018-03-07T10:39:58.798Z,3.90
2018-03-07T10:42:28.625Z,4.10
2018-03-07T10:44:57.693Z,4.00
2018-03-07T10:47:26.837Z,4.00
2018-03-07T10:49:55.902Z,3.80
2018-03-07T10:52:25.023Z,4.00
2018-03-07T10:54:54.092Z,4.00
2018-03-07T10:57:23.158Z,3.90
2018-03-07T10:59:52.982Z,4.10
2018-03-07T11:02:22.813Z,4.00
2018-03-07T11:04:52.698Z,4.30
2018-03-07T11:07:21.758Z,4.30
2018-03-07T11:09:51.617Z,4.60
2018-03-07T11:12:20.678Z,4.60
2018-03-07T11:14:49.928Z,4.70
2018-03-07T11:17:18.993Z,4.80
2018-03-07T11:19:48.246Z,4.80
2018-03-07T11:22:17.306Z,4.60
2018-03-07T11:24:46.369Z,4.70
2018-03-07T11:27:15.434Z,4.80
2018-03-07T11:29:44.501Z,4.60
2018-03-07T11:32:13.562Z,4.40
2018-03-07T11:34:42.626Z,4.40
2018-03-07T11:40:13.034Z,4.40
2018-03-07T11:42:42.106Z,4.60
2018-03-07T11:47:49.644Z,4.40
2018-03-07T11:50:18.738Z,4.40
2018-03-07T11:52:47.802Z,4.50
2018-03-07T11:55:16.961Z,4.70
2018-03-07T11:57:46.027Z,4.60
2018-03-07T12:00:15.180Z,4.60
2018-03-07T12:02:44.249Z,4.40
2018-03-07T12:05:13.342Z,4.40
2018-03-07T12:07:42.406Z,4.50
2018-03-07T12:10:11.475Z,4.80
2018-03-07T12:12:40.572Z,4.80
2018-03-07T12:15:09.638Z,4.80
2018-03-07T12:17:38.706Z,5.00
2018-03-07T12:20:08.598Z,5.10
2018-03-07T12:22:37.666Z,5.10
2018-03-07T12:25:07.631Z,5.00
2018-03-07T12:27:36.707Z,5.00
2018-03-07T12:30:05.794Z,5.00
2018-03-07T12:32:34.925Z,4.80
2018-03-07T12:35:04.757Z,4.70
2018-03-07T12:37:34.594Z,4.50
2018-03-07T12:40:03.657Z,4.50
2018-03-07T12:42:32.726Z,4.50
2018-03-07T12:45:01.853Z,4.40
2018-03-07T12:47:30.942Z,4.30
2018-03-07T12:50:00.056Z,4.20
2018-03-07T12:52:29.165Z,4.20
2018-03-07T12:54:58.221Z,4.30
2018-03-07T12:57:27.290Z,4.20
2018-03-07T12:59:56.358Z,4.10
2018-03-07T13:02:25.466Z,4.20
2018-03-07T13:04:54.535Z,4.20
2018-03-07T13:07:23.606Z,4.20
2018-03-07T13:09:53.458Z,4.00
2018-03-07T13:12:22.522Z,4.00
2018-03-07T13:14:51.630Z,3.90
2018-03-07T13:17:20.693Z,3.90
2018-03-07T13:19:49.758Z,3.90
2018-03-07T13:22:18.830Z,3.90
2018-03-07T13:24:47.898Z,3.90
2018-03-07T13:27:17.731Z,3.90
2018-03-07T13:29:46.790Z,3.90
2018-03-07T13:32:16.066Z,3.90
2018-03-07T13:34:45.141Z,3.90
2018-03-07T13:37:14.970Z,3.90
2018-03-07T13:39:44.878Z,3.90
2018-03-07T13:42:13.942Z,3.90
2018-03-07T13:44:43.059Z,3.90
2018-03-07T13:47:12.895Z,3.90
2018-03-07T13:49:41.958Z,3.90
2018-03-07T13:52:11.785Z,3.90
2018-03-07T13:54:41.613Z,3.90
2018-03-07T13:57:11.647Z,3.90
2018-03-07T13:59:41.479Z,4.00
2018-03-07T14:02:11.310Z,4.00
2018-03-07T14:04:41.166Z,4.00
2018-03-07T14:07:10.296Z,4.00
2018-03-07T14:09:39.405Z,4.00
2018-03-07T14:12:08.682Z,4.10
2018-03-07T14:14:38.505Z,4.00
2018-03-07T14:17:08.345Z,4.10
2018-03-07T14:19:37.410Z,4.10
2018-03-07T14:22:06.478Z,4.10
2018-03-07T14:24:35.542Z,4.10
2018-03-07T14:27:04.605Z,4.10
2018-03-07T14:29:33.661Z,4.20
2018-03-07T14:32:03.526Z,4.10
2018-03-07T14:34:32.726Z,4.10
2018-03-07T14:37:01.834Z,4.10
2018-03-07T14:39:30.967Z,4.10
2018-03-07T14:42:00.081Z,4.10
2018-03-07T14:44:29.154Z,4.00
2018-03-07T14:46:58.986Z,4.00
2018-03-07T14:49:28.818Z,4.00
2018-03-07T14:51:57.885Z,4.00
2018-03-07T14:54:27.161Z,4.00
2018-03-07T14:56:57.006Z,4.00
2018-03-07T14:59:26.117Z,4.10
2018-03-07T15:01:55.186Z,4.10
2018-03-07T15:04:25.018Z,3.70
2018-03-07T15:06:54.330Z,3.70
2018-03-07T15:09:24.195Z,3.80
2018-03-07T15:11:53.259Z,3.80
2018-03-07T15:14:23.090Z,3.80
2018-03-07T15:16:53.032Z,3.70
2018-03-07T15:19:22.141Z,3.70
2018-03-07T15:21:51.237Z,3.80
2018-03-07T15:24:21.074Z,3.80
2018-03-07T15:26:50.963Z,3.80
2018-03-07T15:29:20.026Z,3.80
2018-03-07T15:31:49.094Z,3.80
2018-03-07T15:34:18.157Z,3.90
2018-03-07T15:36:47.222Z,3.80
2018-03-07T15:39:16.345Z,3.80
2018-03-07T15:41:46.226Z,3.90
2018-03-07T15:44:15.292Z,3.90
2018-03-07T15:46:44.353Z,3.70
2018-03-07T15:49:13.650Z,3.70
2018-03-07T15:51:42.714Z,3.60
2018-03-07T15:54:12.542Z,3.70
2018-03-07T15:56:42.378Z,3.80
2018-03-07T15:59:11.509Z,3.70
2018-03-07T16:01:40.574Z,3.80
2018-03-07T16:04:09.644Z,3.90
2018-03-07T16:06:38.718Z,3.90
2018-03-07T16:09:08.591Z,3.90
2018-03-07T16:11:37.658Z,3.90
2018-03-07T16:14:07.530Z,3.80
2018-03-07T16:16:36.600Z,3.80
2018-03-07T16:19:05.667Z,3.80
2018-03-07T16:21:36.194Z,3.60
2018-03-07T16:24:05.322Z,3.60
2018-03-07T16:26:34.654Z,3.60
2018-03-07T16:29:03.730Z,3.60
2018-03-07T16:31:32.794Z,3.70
2018-03-07T16:34:02.630Z,3.80
2018-03-07T16:36:31.701Z,3.70
2018-03-07T16:39:00.770Z,3.70
2018-03-07T16:41:29.856Z,3.60
2018-03-07T16:43:58.922Z,3.60
2018-03-07T16:46:27.985Z,3.60
2018-03-07T16:48:57.043Z,3.60
2018-03-07T16:51:26.210Z,3.70
2018-03-07T16:53:55.274Z,3.60
2018-03-07T16:56:24.346Z,3.60
2018-03-07T16:58:53.451Z,3.60
2018-03-07T17:01:23.031Z,3.50
2018-03-07T17:03:52.866Z,3.50
2018-03-07T17:06:22.717Z,3.60
2018-03-07T17:08:51.867Z,3.60
2018-03-07T17:11:20.938Z,3.50
2018-03-07T17:13:50.042Z,3.50
2018-03-07T17:16:19.105Z,3.50
2018-03-07T17:18:48.165Z,3.60
2018-03-07T17:21:17.226Z,3.50
2018-03-07T17:23:46.285Z,3.40
2018-03-07T17:26:15.341Z,3.50
2018-03-07T17:28:44.422Z,3.50
2018-03-07T17:31:13.524Z,3.50
2018-03-07T17:33:42.617Z,3.50
2018-03-07T17:36:11.712Z,3.60
2018-03-07T17:38:41.547Z,3.60
2018-03-07T17:41:10.605Z,3.60
2018-03-07T17:43:39.788Z,3.70
2018-03-07T17:46:08.858Z,3.70
2018-03-07T17:48:37.923Z,3.70
2018-03-07T17:51:06.990Z,3.70
2018-03-07T17:53:36.823Z,3.50
2018-03-07T17:56:06.655Z,3.50
2018-03-07T17:58:35.738Z,3.50
2018-03-07T18:01:04.873Z,3.50
2018-03-07T18:03:34.697Z,3.40
2018-03-07T18:06:04.528Z,3.50
2018-03-07T18:08:34.396Z,3.50
2018-03-07T18:11:03.580Z,3.40
2018-03-07T18:13:32.682Z,3.50
2018-03-07T18:16:01.745Z,3.50
2018-03-07T18:18:30.806Z,3.50
2018-03-07T18:20:59.867Z,3.60
2018-03-07T18:23:28.934Z,3.60
2018-03-07T18:25:58.295Z,3.50
2018-03-07T18:28:27.360Z,3.60
2018-03-07T18:30:56.427Z,3.60
2018-03-07T18:33:25.494Z,3.60
2018-03-07T18:35:54.670Z,3.60
2018-03-07T18:38:24.501Z,3.70
2018-03-07T18:40:54.333Z,3.70
2018-03-07T18:43:23.449Z,3.70
2018-03-07T18:45:52.546Z,3.70
2018-03-07T18:48:22.378Z,3.70
2018-03-07T18:50:52.205Z,3.60
2018-03-07T18:53:22.035Z,3.60
2018-03-07T18:55:51.866Z,3.50
2018-03-07T18:58:20.933Z,3.50
2018-03-07T19:00:49.998Z,3.50
2018-03-07T19:03:19.094Z,3.40
2018-03-07T19:05:48.161Z,3.40
2018-03-07T19:08:17.226Z,3.50
2018-03-07T19:10:46.318Z,3.50
2018-03-07T19:13:16.151Z,3.40
2018-03-07T19:15:45.269Z,3.40
2018-03-07T19:18:14.333Z,3.40
2018-03-07T19:20:43.430Z,3.40
2018-03-07T19:23:12.498Z,3.50
2018-03-07T19:25:41.567Z,3.40
2018-03-07T19:28:10.630Z,3.40
2018-03-07T19:30:39.749Z,3.30
2018-03-07T19:33:08.877Z,3.30
2018-03-07T19:35:37.914Z,3.30
2018-03-07T19:38:07.006Z,3.40
2018-03-07T19:40:36.671Z,3.30
2018-03-07T19:43:05.802Z,3.30
2018-03-07T19:45:34.867Z,3.20
2018-03-07T19:48:03.925Z,3.30
2018-03-07T19:50:33.002Z,3.20
2018-03-07T19:53:02.890Z,3.30
2018-03-07T19:55:31.990Z,3.30
2018-03-07T19:58:01.065Z,3.30
2018-03-07T20:00:30.139Z,3.30
2018-03-07T20:02:59.215Z,3.30
2018-03-07T20:05:28.273Z,3.20
2018-03-07T20:07:58.114Z,3.30
2018-03-07T20:10:27.196Z,3.30
2018-03-07T20:12:56.266Z,3.30
2018-03-07T20:15:25.361Z,3.30
2018-03-07T20:17:54.430Z,3.30
2018-03-07T20:20:23.497Z,3.30
2018-03-07T20:22:52.603Z,3.30
2018-03-07T20:25:21.674Z,3.30
2018-03-07T20:27:51.557Z,3.20
2018-03-07T20:30:20.634Z,3.20
2018-03-07T20:32:49.701Z,3.20
2018-03-07T20:35:18.762Z,3.20
2018-03-07T20:37:47.829Z,3.20
2018-03-07T20:40:16.895Z,3.20
2018-03-07T20:42:46.002Z,3.30
2018-03-07T20:45:15.122Z,3.30
2018-03-07T20:47:44.172Z,3.30
2018-03-07T20:50:13.246Z,3.30
2018-03-07T20:52:42.306Z,3.30
2018-03-07T20:55:12.134Z,3.30
2018-03-07T20:57:41.969Z,3.30
2018-03-07T21:00:11.036Z,3.30
2018-03-07T21:02:40.177Z,3.30
2018-03-07T21:05:10.014Z,3.30
2018-03-07T21:07:39.850Z,3.30
2018-03-07T21:10:08.928Z,3.20
2018-03-07T21:12:38.026Z,3.30
2018-03-07T21:15:07.098Z,3.20
2018-03-07T21:17:36.198Z,3.20
2018-03-07T21:20:05.335Z,3.20
2018-03-07T21:22:34.427Z,3.20
2018-03-07T21:25:03.497Z,3.20
2018-03-07T21:27:33.331Z,3.30
2018-03-07T21:30:02.467Z,3.30
2018-03-07T21:32:31.535Z,3.30
2018-03-07T21:35:00.753Z,3.30
2018-03-07T21:37:29.943Z,3.30
2018-03-07T21:39:59.009Z,3.30
2018-03-07T21:42:28.083Z,3.20
2018-03-07T21:44:57.181Z,3.30
2018-03-07T21:47:26.302Z,3.30
2018-03-07T21:49:55.339Z,3.30
2018-03-07T21:52:24.410Z,3.30
2018-03-07T21:54:53.569Z,3.30
2018-03-07T21:57:22.674Z,3.30
2018-03-07T21:59:51.741Z,3.30
2018-03-07T22:02:20.805Z,3.30
2018-03-07T22:04:49.870Z,3.40
2018-03-07T22:07:18.941Z,3.30
2018-03-07T22:09:48.014Z,3.30
2018-03-07T22:12:17.846Z,3.30
2018-03-07T22:14:46.909Z,3.30
2018-03-07T22:17:15.978Z,3.40
2018-03-07T22:19:45.047Z,3.40
2018-03-07T22:22:14.110Z,3.40
2018-03-07T22:24:43.173Z,3.50
2018-03-07T22:27:13.011Z,3.40
2018-03-07T22:29:42.848Z,3.50
2018-03-07T22:32:11.923Z,3.40
2018-03-07T22:34:40.998Z,3.50
2018-03-07T22:37:10.078Z,3.60
2018-03-07T22:39:39.150Z,3.50
2018-03-07T22:42:08.219Z,3.30
2018-03-07T22:44:37.357Z,3.40
2018-03-07T22:47:06.531Z,3.50
2018-03-07T22:49:35.600Z,3.20
2018-03-07T22:52:04.669Z,3.30
2018-03-07T22:54:33.745Z,3.30
2018-03-07T22:57:03.584Z,3.40
2018-03-07T22:59:32.658Z,3.40
2018-03-07T23:02:01.795Z,3.40
2018-03-07T23:04:31.630Z,3.40
2018-03-07T23:07:00.696Z,3.40
2018-03-07T23:09:30.674Z,3.40
2018-03-07T23:11:59.774Z,3.40
2018-03-07T23:14:28.901Z,3.30
2018-03-07T23:16:57.972Z,3.40
2018-03-07T23:19:27.810Z,3.30
2018-03-07T23:21:57.698Z,3.30
2018-03-07T23:24:26.913Z,3.30
2018-03-07T23:26:56.885Z,3.30
2018-03-07T23:29:26.928Z,3.30
2018-03-07T23:31:56.767Z,3.30
2018-03-07T23:34:25.834Z,3.30
2018-03-07T23:36:54.958Z,3.20
2018-03-07T23:39:24.790Z,3.20
2018-03-07T23:41:54.630Z,3.20
2018-03-07T23:44:24.461Z,3.20
2018-03-07T23:46:53.530Z,3.20
2018-03-07T23:49:22.902Z,3.20
2018-03-07T23:51:51.974Z,3.20
2018-03-07T23:54:21.045Z,3.20
2018-03-07T23:56:50.202Z,3.10
2018-03-07T23:59:19.274Z,3.10
